createdAt,value
2023-09-16T00:02:01.599Z,13.18
2023-09-16T00:04:29.031Z,13.48
2023-09-16T00:06:58.106Z,12.20
2023-09-16T00:09:25.434Z,15.18
2023-09-16T00:11:52.951Z,16.92
2023-09-16T00:14:21.265Z,13.60
2023-09-16T00:16:48.499Z,13.45
2023-09-16T00:19:15.631Z,14.00
2023-09-16T00:21:43.563Z,14.20
2023-09-16T00:24:13.509Z,15.88
2023-09-16T00:26:40.630Z,12.40
2023-09-16T00:29:08.082Z,16.52
2023-09-16T00:31:35.327Z,12.48
2023-09-16T00:34:02.645Z,12.65
2023-09-16T00:36:31.009Z,12.90
2023-09-16T00:38:58.174Z,14.95
2023-09-16T00:41:25.280Z,16.70
2023-09-16T00:43:53.036Z,15.70
2023-09-16T00:46:20.152Z,18.48
2023-09-16T00:48:47.585Z,17.58
2023-09-16T00:51:15.337Z,15.60
2023-09-16T00:53:44.780Z,15.60
2023-09-16T00:56:12.703Z,17.02
2023-09-16T00:58:40.292Z,16.58
2023-09-16T01:01:07.469Z,14.63
2023-09-16T01:03:36.750Z,15.82
2023-09-16T01:06:06.041Z,15.68
2023-09-16T01:11:06.334Z,14.93
2023-09-16T01:13:34.910Z,17.58
2023-09-16T01:16:29.875Z,16.15
2023-09-16T01:19:15.724Z,15.48
2023-09-16T01:21:43.969Z,15.88
2023-09-16T01:24:18.184Z,16.40
2023-09-16T01:26:46.867Z,17.63
2023-09-16T01:29:16.181Z,17.55
2023-09-16T01:34:36.790Z,16.00
2023-09-16T01:37:07.897Z,16.73
2023-09-16T01:39:36.393Z,16.52
2023-09-16T01:42:04.537Z,16.92
2023-09-16T01:44:31.689Z,17.73
2023-09-16T01:46:59.057Z,18.35
2023-09-16T01:49:26.228Z,20.45
2023-09-16T01:51:53.459Z,16.23
2023-09-16T01:54:20.637Z,17.15
2023-09-16T01:56:48.479Z,20.33
2023-09-16T01:59:15.764Z,16.77
2023-09-16T02:01:44.374Z,16.50
2023-09-16T02:04:11.537Z,16.63
2023-09-16T02:06:39.346Z,17.77
2023-09-16T02:09:06.661Z,18.60
2023-09-16T02:11:33.865Z,16.90
2023-09-16T02:14:02.742Z,19.63
2023-09-16T02:16:30.111Z,17.00
2023-09-16T02:18:57.493Z,18.27
2023-09-16T02:21:25.072Z,20.52
2023-09-16T02:23:52.294Z,19.42
2023-09-16T02:26:19.372Z,18.48
2023-09-16T02:28:46.602Z,18.10
2023-09-16T02:31:13.976Z,19.15
2023-09-16T02:33:41.797Z,21.30
2023-09-16T02:36:09.355Z,22.17
2023-09-16T02:38:36.547Z,22.98
2023-09-16T02:41:05.460Z,22.08
2023-09-16T02:43:35.321Z,17.60
2023-09-16T02:46:02.521Z,19.80
2023-09-16T02:48:29.751Z,23.38
2023-09-16T02:50:56.946Z,18.83
2023-09-16T02:53:24.049Z,17.17
2023-09-16T02:55:51.144Z,17.83
2023-09-16T02:58:18.310Z,14.05
2023-09-16T03:00:48.147Z,14.02
2023-09-16T03:03:16.638Z,14.18
2023-09-16T03:05:46.921Z,14.75
2023-09-16T03:08:15.780Z,13.15
2023-09-16T03:10:43.151Z,14.10
2023-09-16T03:13:11.362Z,13.30
2023-09-16T03:15:45.325Z,10.13
2023-09-16T03:18:13.181Z,10.57
2023-09-16T03:20:44.111Z,10.18
2023-09-16T03:23:11.225Z,11.18
2023-09-16T03:25:38.389Z,9.88
2023-09-16T03:28:06.057Z,7.40
2023-09-16T03:30:33.780Z,9.85
2023-09-16T03:33:01.059Z,10.25
2023-09-16T03:35:32.019Z,6.88
2023-09-16T03:37:59.975Z,6.93
2023-09-16T03:40:27.696Z,7.32
2023-09-16T03:42:57.271Z,7.40
2023-09-16T03:45:29.684Z,8.18
2023-09-16T03:47:59.993Z,5.32
2023-09-16T03:50:28.484Z,7.75
2023-09-16T03:52:55.583Z,5.63
2023-09-16T03:55:22.956Z,4.32
2023-09-16T03:57:50.050Z,5.13
2023-09-16T04:00:17.361Z,3.95
2023-09-16T04:02:44.900Z,5.00
2023-09-16T04:05:12.107Z,5.10
2023-09-16T04:07:39.395Z,3.58
2023-09-16T04:15:02.958Z,3.00
2023-09-16T04:17:32.631Z,4.32
2023-09-16T04:19:59.822Z,3.28
2023-09-16T04:22:26.966Z,2.00
2023-09-16T04:24:54.486Z,2.28
2023-09-16T04:27:22.087Z,1.40
2023-09-16T04:29:49.690Z,2.22
2023-09-16T04:32:16.941Z,2.40
2023-09-16T04:34:44.170Z,3.88
2023-09-16T04:37:11.845Z,2.25
2023-09-16T04:39:39.349Z,1.55
2023-09-16T04:42:06.504Z,2.45
2023-09-16T04:44:39.889Z,3.00
2023-09-16T04:47:11.781Z,1.45
2023-09-16T04:49:39.465Z,1.27
2023-09-16T04:52:06.854Z,2.20
2023-09-16T04:54:34.247Z,1.95
2023-09-16T04:57:03.360Z,1.45
2023-09-16T04:59:33.935Z,0.82
2023-09-16T05:02:04.851Z,2.67
2023-09-16T05:04:32.353Z,1.48
2023-09-16T05:06:59.546Z,1.50
2023-09-16T05:09:27.630Z,1.27
2023-09-16T05:11:54.883Z,1.77
2023-09-16T05:14:23.045Z,2.40
2023-09-16T05:16:50.200Z,1.40
2023-09-16T05:19:18.072Z,2.80
2023-09-16T05:21:45.494Z,1.63
2023-09-16T05:24:13.323Z,1.38
2023-09-16T05:26:40.462Z,1.02
2023-09-16T05:29:07.686Z,1.13
2023-09-16T05:31:36.336Z,1.63
2023-09-16T05:34:03.525Z,0.85
2023-09-16T05:36:30.848Z,1.33
2023-09-16T05:38:58.428Z,1.70
2023-09-16T05:41:25.665Z,1.25
2023-09-16T05:43:52.940Z,1.80
2023-09-16T05:46:20.426Z,1.38
2023-09-16T05:48:47.955Z,1.88
2023-09-16T05:51:15.444Z,2.45
2023-09-16T05:53:43.350Z,4.28
2023-09-16T05:56:12.020Z,4.15
2023-09-16T05:58:45.842Z,3.72
2023-09-16T06:01:16.397Z,2.38
2023-09-16T06:03:43.561Z,3.35
2023-09-16T06:06:12.258Z,3.20
2023-09-16T06:08:39.544Z,3.00
2023-09-16T06:11:06.838Z,2.05
2023-09-16T06:13:33.994Z,1.77
2023-09-16T06:16:02.324Z,1.08
2023-09-16T06:18:31.527Z,2.03
2023-09-16T06:20:59.142Z,2.17
2023-09-16T06:23:27.086Z,1.77
2023-09-16T06:25:55.176Z,1.88
2023-09-16T06:28:23.216Z,2.17
2023-09-16T06:30:50.585Z,1.73
2023-09-16T06:33:19.491Z,0.98
2023-09-16T06:35:46.994Z,1.73
2023-09-16T06:38:14.189Z,0.80
2023-09-16T06:40:42.081Z,2.83
2023-09-16T06:43:09.262Z,4.25
2023-09-16T06:45:40.739Z,2.55
2023-09-16T06:48:09.858Z,3.88
2023-09-16T06:50:37.127Z,3.78
2023-09-16T06:53:04.347Z,2.08
2023-09-16T06:55:31.451Z,2.03
2023-09-16T06:57:58.629Z,1.88
2023-09-16T07:00:25.803Z,1.92
2023-09-16T07:02:54.957Z,3.80
2023-09-16T07:05:22.147Z,3.40
2023-09-16T07:07:49.222Z,2.90
2023-09-16T07:10:16.481Z,2.72
2023-09-16T07:12:43.658Z,6.75
2023-09-16T07:15:11.141Z,11.98
2023-09-16T07:17:39.465Z,5.40
2023-09-16T07:20:07.009Z,4.72
2023-09-16T07:22:34.130Z,4.38
2023-09-16T07:25:01.557Z,2.60
2023-09-16T07:27:29.312Z,3.40
2023-09-16T07:29:56.383Z,1.60
2023-09-16T07:32:23.490Z,4.85
2023-09-16T07:34:50.577Z,2.35
2023-09-16T07:37:17.705Z,1.45
2023-09-16T07:39:46.868Z,1.77
2023-09-16T07:44:41.406Z,1.35
2023-09-16T07:47:08.486Z,3.63
2023-09-16T07:49:36.505Z,1.50
2023-09-16T07:52:03.965Z,3.13
2023-09-16T07:54:31.117Z,2.30
2023-09-16T07:56:58.234Z,2.15
2023-09-16T07:59:27.278Z,2.83
2023-09-16T08:01:54.481Z,3.85
2023-09-16T08:04:22.051Z,2.13
2023-09-16T08:06:51.387Z,3.90
2023-09-16T08:09:18.775Z,2.10
2023-09-16T08:11:45.920Z,3.65
2023-09-16T08:14:13.038Z,3.67
2023-09-16T08:16:40.213Z,2.33
2023-09-16T08:19:08.837Z,3.20
2023-09-16T08:21:36.169Z,3.10
2023-09-16T08:24:03.305Z,3.45
2023-09-16T08:26:30.480Z,3.53
2023-09-16T08:28:57.757Z,4.43
2023-09-16T08:31:24.928Z,6.80
2023-09-16T08:33:55.538Z,2.25
2023-09-16T08:36:23.369Z,1.85
2023-09-16T08:38:50.536Z,2.30
2023-09-16T08:41:29.306Z,2.13
2023-09-16T08:44:00.623Z,2.47
2023-09-16T08:46:31.639Z,4.47
2023-09-16T08:49:01.479Z,1.42
2023-09-16T08:51:33.500Z,2.33
2023-09-16T08:54:04.741Z,2.63
2023-09-16T08:56:34.088Z,4.00
2023-09-16T08:59:02.041Z,2.53
2023-09-16T09:01:30.430Z,4.15
2023-09-16T09:03:59.939Z,3.78
2023-09-16T09:06:40.326Z,3.10
2023-09-16T09:09:09.197Z,1.83
2023-09-16T09:11:37.753Z,1.98
2023-09-16T09:14:05.496Z,1.73
2023-09-16T09:16:35.488Z,3.72
2023-09-16T09:19:03.216Z,3.13
2023-09-16T09:21:31.023Z,3.50
2023-09-16T09:23:59.391Z,3.47
2023-09-16T09:26:28.916Z,3.28
2023-09-16T09:28:59.385Z,3.22
2023-09-16T09:31:28.340Z,4.30
2023-09-16T09:36:22.818Z,3.60
2023-09-16T09:38:50.208Z,1.35
2023-09-16T09:41:18.821Z,1.80
2023-09-16T09:43:45.949Z,3.45
2023-09-16T09:46:13.276Z,1.70
2023-09-16T09:48:41.111Z,1.90
2023-09-16T09:51:10.330Z,2.38
2023-09-16T09:53:38.301Z,3.22
2023-09-16T09:56:05.529Z,1.83
2023-09-16T09:58:33.385Z,2.63
2023-09-16T10:01:01.492Z,1.27
2023-09-16T10:03:29.220Z,4.93
2023-09-16T10:06:00.632Z,2.35
2023-09-16T10:08:31.068Z,2.33
2023-09-16T10:10:58.421Z,2.28
2023-09-16T10:13:25.675Z,1.88
2023-09-16T10:15:53.637Z,2.03
2023-09-16T10:18:21.037Z,2.17
2023-09-16T10:20:48.337Z,1.67
2023-09-16T10:23:15.820Z,3.63
2023-09-16T10:25:43.762Z,2.38
2023-09-16T10:28:11.706Z,3.05
2023-09-16T10:30:39.415Z,3.90
2023-09-16T10:33:09.089Z,3.50
2023-09-16T10:35:41.804Z,2.80
2023-09-16T10:38:11.865Z,2.05
2023-09-16T10:40:40.454Z,3.65
2023-09-16T10:43:08.275Z,5.32
2023-09-16T10:45:38.672Z,2.25
2023-09-16T10:48:06.926Z,3.28
2023-09-16T10:50:38.266Z,2.78
2023-09-16T10:53:23.165Z,8.45
2023-09-16T10:56:05.589Z,3.00
2023-09-16T10:58:35.880Z,3.78
2023-09-16T11:01:03.811Z,3.33
2023-09-16T11:03:38.917Z,3.47
2023-09-16T11:06:06.231Z,4.93
2023-09-16T11:08:33.359Z,3.03
2023-09-16T11:11:01.035Z,4.47
2023-09-16T11:13:29.765Z,2.97
2023-09-16T11:16:01.374Z,2.70
2023-09-16T11:18:30.879Z,7.65
2023-09-16T11:20:58.248Z,3.40
2023-09-16T11:23:27.262Z,5.93
2023-09-16T11:25:57.471Z,3.70
2023-09-16T11:28:26.779Z,2.67
2023-09-16T11:31:12.175Z,5.00
2023-09-16T11:33:39.494Z,1.90
2023-09-16T11:36:11.995Z,2.20
2023-09-16T11:38:40.622Z,2.38
2023-09-16T11:41:11.736Z,3.65
2023-09-16T11:43:40.452Z,3.80
2023-09-16T11:46:08.486Z,4.13
2023-09-16T11:48:56.021Z,3.90
2023-09-16T11:51:25.544Z,2.60
2023-09-16T11:56:24.401Z,2.47
2023-09-16T11:58:52.265Z,3.17
2023-09-16T12:01:25.347Z,3.08
2023-09-16T12:03:53.212Z,3.17
2023-09-16T12:06:22.282Z,3.10
2023-09-16T12:08:52.860Z,2.83
2023-09-16T12:11:20.290Z,7.18
2023-09-16T12:13:47.485Z,2.83
2023-09-16T12:16:17.622Z,3.78
2023-09-16T12:18:45.669Z,3.28
2023-09-16T12:21:16.116Z,4.43
2023-09-16T12:23:44.203Z,4.45
2023-09-16T12:26:11.947Z,3.20
2023-09-16T12:28:40.353Z,4.60
2023-09-16T12:31:12.867Z,6.30
2023-09-16T12:33:49.583Z,4.10
2023-09-16T12:36:19.477Z,5.10
2023-09-16T12:38:48.124Z,4.75
2023-09-16T12:41:16.988Z,3.25
2023-09-16T12:43:46.856Z,7.72
2023-09-16T12:46:16.531Z,5.32
2023-09-16T12:48:49.265Z,7.22
2023-09-16T12:51:19.523Z,7.07
2023-09-16T12:53:47.413Z,3.05
2023-09-16T12:56:21.278Z,4.07
2023-09-16T12:58:51.498Z,3.40
2023-09-16T13:01:21.019Z,5.30
2023-09-16T13:03:48.800Z,5.80
2023-09-16T13:06:16.611Z,8.18
2023-09-16T13:08:44.635Z,3.45
2023-09-16T13:11:15.341Z,4.05
2023-09-16T13:13:42.855Z,6.07
2023-09-16T13:16:12.142Z,5.32
2023-09-16T13:18:42.904Z,5.07
2023-09-16T13:21:11.369Z,3.38
2023-09-16T13:23:51.801Z,2.78
2023-09-16T13:26:19.178Z,5.30
2023-09-16T13:29:01.521Z,2.40
2023-09-16T13:31:29.390Z,2.53
2023-09-16T13:34:01.472Z,3.83
2023-09-16T13:36:35.151Z,3.10
2023-09-16T13:39:06.689Z,2.65
2023-09-16T13:41:33.905Z,2.58
2023-09-16T13:44:01.151Z,2.90
2023-09-16T13:46:28.570Z,3.63
2023-09-16T13:48:56.568Z,4.07
2023-09-16T13:51:23.906Z,3.08
2023-09-16T13:53:52.174Z,4.28
2023-09-16T13:56:23.443Z,4.35
2023-09-16T13:58:51.316Z,3.33
2023-09-16T14:01:20.048Z,3.50
2023-09-16T14:03:47.358Z,3.42
2023-09-16T14:06:14.703Z,3.17
2023-09-16T14:08:42.014Z,2.67
2023-09-16T14:11:09.202Z,3.28
2023-09-16T14:13:36.370Z,3.40
2023-09-16T14:16:03.649Z,4.82
2023-09-16T14:18:31.268Z,2.95
2023-09-16T14:20:58.621Z,4.85
2023-09-16T14:23:25.921Z,3.78
2023-09-16T14:25:54.714Z,3.35
2023-09-16T14:28:22.094Z,4.35
2023-09-16T14:30:49.489Z,2.72
2023-09-16T14:33:16.764Z,4.15
2023-09-16T14:35:46.491Z,3.95
2023-09-16T14:38:13.630Z,5.28
2023-09-16T14:40:40.965Z,3.83
2023-09-16T14:43:08.296Z,3.20
2023-09-16T14:45:35.651Z,3.28
2023-09-16T14:48:04.252Z,3.67
2023-09-16T14:50:33.311Z,4.32
2023-09-16T14:53:02.936Z,2.85
2023-09-16T14:55:32.870Z,2.80
2023-09-16T14:58:01.857Z,5.68
2023-09-16T15:00:30.101Z,2.50
2023-09-16T15:02:57.774Z,2.90
2023-09-16T15:05:25.093Z,3.63
2023-09-16T15:07:53.355Z,3.08
2023-09-16T15:10:20.796Z,4.45
2023-09-16T15:12:48.029Z,5.20
2023-09-16T15:15:15.123Z,4.97
2023-09-16T15:17:42.545Z,3.40
2023-09-16T15:20:12.308Z,3.42
2023-09-16T15:22:40.093Z,2.72
2023-09-16T15:25:07.598Z,9.32
2023-09-16T15:27:34.806Z,3.28
2023-09-16T15:30:01.992Z,6.82
2023-09-16T15:32:45.464Z,6.45
2023-09-16T15:35:14.177Z,4.75
2023-09-16T15:37:41.357Z,6.07
2023-09-16T15:40:08.843Z,2.70
2023-09-16T15:42:36.034Z,5.00
2023-09-16T15:45:04.866Z,4.10
2023-09-16T15:47:33.847Z,4.13
2023-09-16T15:50:01.072Z,4.72
2023-09-16T15:52:30.871Z,6.05
2023-09-16T15:54:58.066Z,4.68
2023-09-16T15:57:25.229Z,4.55
2023-09-16T15:59:52.480Z,7.38
2023-09-16T16:02:19.916Z,5.03
2023-09-16T16:04:47.290Z,3.88
2023-09-16T16:07:15.963Z,6.75
2023-09-16T16:09:43.466Z,4.93
2023-09-16T16:12:10.571Z,3.72
2023-09-16T16:14:37.811Z,3.30
2023-09-16T16:17:17.711Z,5.80
2023-09-16T16:19:49.472Z,4.57
2023-09-16T16:22:18.008Z,7.47
2023-09-16T16:24:45.163Z,9.95
2023-09-16T16:27:12.295Z,3.78
2023-09-16T16:29:39.460Z,7.00
2023-09-16T16:32:06.599Z,6.82
2023-09-16T16:34:33.773Z,3.75
2023-09-16T16:37:01.100Z,5.88
2023-09-16T16:39:28.392Z,5.30
2023-09-16T16:41:55.663Z,9.80
2023-09-16T16:44:22.808Z,4.40
2023-09-16T16:46:53.086Z,7.75
2023-09-16T16:49:23.947Z,6.45
2023-09-16T16:51:51.224Z,6.35
2023-09-16T16:54:18.419Z,8.07
2023-09-16T16:56:45.770Z,5.93
2023-09-16T16:59:12.916Z,7.55
2023-09-16T17:01:40.142Z,8.75
2023-09-16T17:04:07.334Z,10.05
2023-09-16T17:06:36.397Z,8.82
2023-09-16T17:11:31.362Z,6.82
2023-09-16T17:14:02.078Z,5.43
2023-09-16T17:16:32.077Z,8.45
2023-09-16T17:19:02.551Z,7.10
2023-09-16T17:21:29.747Z,6.93
2023-09-16T17:23:57.200Z,6.43
2023-09-16T17:26:24.527Z,7.53
2023-09-16T17:28:53.714Z,7.55
2023-09-16T17:31:21.824Z,8.50
2023-09-16T17:33:49.459Z,6.15
2023-09-16T17:36:17.357Z,8.45
2023-09-16T17:38:44.686Z,10.40
2023-09-16T17:41:17.830Z,8.85
2023-09-16T17:43:46.127Z,8.02
2023-09-16T17:46:13.461Z,11.38
2023-09-16T17:48:40.727Z,9.07
2023-09-16T17:51:07.939Z,7.65
2023-09-16T17:53:35.046Z,6.55
2023-09-16T17:56:02.412Z,8.25
2023-09-16T17:58:34.805Z,10.48
2023-09-16T18:01:02.446Z,7.03
2023-09-16T18:03:29.659Z,12.57
2023-09-16T18:05:56.956Z,12.90
2023-09-16T18:08:25.289Z,14.63
2023-09-16T18:10:52.462Z,8.85
2023-09-16T18:13:19.609Z,10.23
2023-09-16T18:15:46.952Z,12.63
2023-09-16T18:18:14.241Z,10.07
2023-09-16T18:20:43.577Z,10.15
2023-09-16T18:25:38.116Z,11.00
2023-09-16T18:28:05.642Z,10.25
2023-09-16T18:30:32.768Z,8.68
2023-09-16T18:32:59.973Z,10.63
2023-09-16T18:35:27.851Z,13.15
2023-09-16T18:38:03.183Z,8.40
2023-09-16T18:40:37.299Z,10.45
2023-09-16T18:43:05.114Z,11.13
2023-09-16T18:45:32.939Z,9.20
2023-09-16T18:48:00.284Z,11.90
2023-09-16T18:50:27.630Z,16.92
2023-09-16T18:52:54.771Z,15.77
2023-09-16T18:55:21.904Z,10.55
2023-09-16T18:57:49.166Z,10.13
2023-09-16T19:00:17.310Z,10.02
2023-09-16T19:02:44.703Z,9.55
2023-09-16T19:05:12.493Z,12.65
2023-09-16T19:07:39.914Z,11.45
2023-09-16T19:10:07.842Z,13.10
2023-09-16T19:12:35.266Z,11.35
2023-09-16T19:15:02.451Z,13.65
2023-09-16T19:17:31.692Z,11.27
2023-09-16T19:19:59.072Z,10.55
2023-09-16T19:22:26.347Z,12.38
2023-09-16T19:24:59.244Z,12.32
2023-09-16T19:27:26.484Z,14.05
2023-09-16T19:29:53.620Z,12.27
2023-09-16T19:32:20.920Z,8.32
2023-09-16T19:34:49.365Z,13.07
2023-09-16T19:37:16.459Z,11.13
2023-09-16T19:39:43.685Z,14.40
2023-09-16T19:42:11.288Z,9.02
2023-09-16T19:44:38.820Z,11.43
2023-09-16T19:47:06.047Z,9.20
2023-09-16T19:49:33.517Z,12.27
2023-09-16T19:52:00.609Z,15.93
2023-09-16T19:54:27.742Z,12.82
2023-09-16T19:57:03.949Z,12.32
2023-09-16T19:59:32.403Z,12.68
2023-09-16T20:02:00.351Z,13.82
2023-09-16T20:04:28.382Z,10.07
2023-09-16T20:06:57.379Z,16.98
2023-09-16T20:09:24.468Z,11.00
2023-09-16T20:11:51.622Z,14.68
2023-09-16T20:14:18.742Z,14.38
2023-09-16T20:16:45.937Z,12.77
2023-09-16T20:19:17.827Z,16.25
2023-09-16T20:21:44.961Z,11.13
2023-09-16T20:24:12.177Z,12.85
2023-09-16T20:26:40.421Z,11.38
2023-09-16T20:29:07.522Z,16.13
2023-09-16T20:31:35.042Z,25.42
2023-09-16T20:34:11.706Z,15.10
2023-09-16T20:36:39.363Z,14.15
2023-09-16T20:39:08.178Z,16.48
2023-09-16T20:41:35.322Z,17.40
2023-09-16T20:44:04.284Z,17.30
2023-09-16T20:46:31.852Z,13.90
2023-09-16T20:48:59.191Z,14.02
2023-09-16T20:51:26.442Z,10.80
2023-09-16T20:53:53.567Z,11.13
2023-09-16T20:56:20.756Z,10.23
2023-09-16T20:58:47.944Z,15.10
2023-09-16T21:01:15.419Z,16.83
2023-09-16T21:03:42.794Z,19.75
2023-09-16T21:06:10.151Z,15.32
2023-09-16T21:08:37.319Z,12.05
2023-09-16T21:11:04.838Z,13.90
2023-09-16T21:13:32.079Z,15.90
2023-09-16T21:15:59.390Z,12.15
2023-09-16T21:18:26.716Z,15.00
2023-09-16T21:20:55.154Z,14.80
2023-09-16T21:23:23.647Z,13.30
2023-09-16T21:25:50.772Z,16.10
2023-09-16T21:28:19.880Z,17.02
2023-09-16T21:33:14.539Z,19.10
2023-09-16T21:35:41.704Z,15.77
2023-09-16T21:38:09.473Z,15.35
2023-09-16T21:40:36.881Z,18.85
2023-09-16T21:43:04.246Z,15.05
2023-09-16T21:45:31.647Z,15.85
2023-09-16T21:47:58.907Z,16.92
2023-09-16T21:50:26.217Z,13.05
2023-09-16T21:52:53.438Z,12.07
2023-09-16T21:55:20.569Z,15.30
2023-09-16T21:57:47.766Z,12.95
2023-09-16T22:00:47.215Z,13.18
2023-09-16T22:03:14.473Z,13.48
2023-09-16T22:05:41.718Z,11.05
2023-09-16T22:08:09.129Z,14.38
2023-09-16T22:10:37.082Z,19.13
2023-09-16T22:13:05.144Z,10.05
2023-09-16T22:15:35.061Z,14.93
2023-09-16T22:18:02.399Z,10.85
2023-09-16T22:20:29.673Z,14.90
2023-09-16T22:22:56.802Z,23.00
2023-09-16T22:25:24.181Z,21.30
2023-09-16T22:27:51.653Z,15.45
2023-09-16T22:30:20.701Z,13.77
2023-09-16T22:32:48.478Z,22.05
2023-09-16T22:35:15.729Z,20.15
2023-09-16T22:37:43.111Z,14.27
2023-09-16T22:40:10.995Z,13.75
2023-09-16T22:42:38.469Z,13.82
2023-09-16T22:45:07.028Z,10.90
2023-09-16T22:47:35.634Z,12.93
2023-09-16T22:50:02.971Z,12.63
2023-09-16T22:52:32.280Z,11.45
2023-09-16T22:55:00.288Z,11.73
2023-09-16T22:57:27.681Z,11.43
2023-09-16T22:59:56.494Z,10.93
2023-09-16T23:02:24.746Z,10.73
2023-09-16T23:04:52.798Z,11.88
2023-09-16T23:07:20.527Z,14.93
2023-09-16T23:09:50.483Z,10.65
2023-09-16T23:12:17.537Z,10.40
2023-09-16T23:14:44.734Z,12.52
2023-09-16T23:17:13.081Z,9.35
2023-09-16T23:19:40.848Z,12.88
2023-09-16T23:22:08.343Z,16.67
2023-09-16T23:24:35.477Z,9.52
2023-09-16T23:27:02.729Z,12.32
2023-09-16T23:29:30.347Z,11.65
2023-09-16T23:31:58.113Z,14.25
2023-09-16T23:34:25.437Z,21.77
2023-09-16T23:36:52.592Z,10.20
2023-09-16T23:39:19.984Z,13.75
2023-09-16T23:41:47.509Z,11.90
2023-09-16T23:44:15.882Z,10.95
2023-09-16T23:46:43.232Z,11.05
2023-09-16T23:49:10.720Z,12.32
2023-09-16T23:51:38.233Z,12.63
2023-09-16T23:54:05.486Z,13.07
2023-09-16T23:56:32.628Z,11.25
2023-09-16T23:58:59.799Z,10.45
